< < Back
Terminal Aerodrome Forecast


Current Version              Previous Versions:   1  2  3  4  5  6  7  8  9  

Terminal Aerodrome Forecast

501
FTUS42 KTAE 051730
TAFABY
TAF
KABY 051730Z 0518/0618 09010G20KT P6SM SCT050 SCT250
     FM060000 05006KT P6SM FEW035 SCT250=

Latest METAR

169
SAUS70 KWBC 061800 RRG
MTRABY
METAR KABY 061753Z 06006KT 10SM BKN050 28/14 A3014 RMK AO2 SLP206
T02830144 10283 20183 58015


USA.gov is the U.S. government's official web portal to all federal, state and local government web resources and services.